Time;durP1;ratioP1;P1;durP2;ratioP2;P2;SDS_P1;SDS_P2;PMS_P1;PMS_P2;Temp;Humidity;BMP_temperature;BMP_pressure;BME280_temperature;BME280_humidity;BME280_pressure;Samples;Min_cycle;Max_cycle;Signal;HPM_P1;HPM_P2
2022/07/09 00:01:16;;;;;;;5.53;3.20;;;;;;;23.80;45.88;100358.03;4999058;28;20037;-80
2022/07/09 00:03:41;;;;;;;5.55;3.08;;;;;;;23.76;45.82;100349.50;5013726;28;20052;-80
2022/07/09 00:06:07;;;;;;;6.65;3.35;;;;;;;23.80;45.62;100342.41;5005049;28;20038;-80
2022/07/09 00:08:33;;;;;;;5.10;3.10;;;;;;;23.82;45.55;100355.06;5025531;28;20368;-79
2022/07/09 00:10:59;;;;;;;3.97;3.00;;;;;;;23.85;45.75;100347.13;5009533;28;20087;-81
2022/07/09 00:13:24;;;;;;;5.13;3.20;;;;;;;23.88;45.33;100343.03;4998871;28;20124;-81
2022/07/09 00:15:50;;;;;;;6.40;3.10;;;;;;;23.85;45.29;100357.28;5019578;28;20072;-79
2022/07/09 00:18:15;;;;;;;9.52;3.20;;;;;;;23.72;45.54;100353.81;5021996;28;20026;-79
2022/07/09 00:20:41;;;;;;;6.25;3.10;;;;;;;23.70;45.39;100347.75;5013038;28;20057;-81
2022/07/09 00:23:07;;;;;;;4.10;3.05;;;;;;;23.71;45.14;100356.78;5048277;28;20037;-80
2022/07/09 00:25:32;;;;;;;8.00;2.95;;;;;;;23.67;45.26;100342.78;5013777;28;20073;-80
2022/07/09 00:27:58;;;;;;;5.07;3.08;;;;;;;23.69;46.05;100354.28;5026274;28;20064;-78
2022/07/09 00:30:23;;;;;;;5.07;2.95;;;;;;;23.67;45.25;100340.03;5010529;28;20036;-79
2022/07/09 00:32:49;;;;;;;6.75;2.80;;;;;;;23.71;45.14;100357.63;5013942;28;20047;-81
2022/07/09 00:35:14;;;;;;;6.00;3.00;;;;;;;23.67;45.48;100356.50;5019622;28;20048;-80
2022/07/09 00:37:40;;;;;;;7.28;3.15;;;;;;;23.68;45.60;100357.31;5029621;28;20052;-81
2022/07/09 00:40:06;;;;;;;5.68;3.28;;;;;;;23.59;45.31;100359.66;5002491;28;21928;-81
2022/07/09 00:42:31;;;;;;;7.13;2.83;;;;;;;23.54;45.32;100341.22;5046126;28;20428;-80
2022/07/09 00:44:57;;;;;;;10.68;3.20;;;;;;;23.70;45.04;100358.72;5018328;28;20044;-82
2022/07/09 00:47:23;;;;;;;7.43;3.28;;;;;;;23.57;45.11;100351.69;5011114;28;20551;-82
2022/07/09 00:49:48;;;;;;;3.60;3.00;;;;;;;23.60;45.31;100356.69;5002915;28;20441;-80
2022/07/09 00:52:14;;;;;;;5.03;2.97;;;;;;;23.59;45.17;100359.66;5009205;28;20548;-80
2022/07/09 00:54:40;;;;;;;4.15;2.80;;;;;;;23.59;45.08;100362.41;5003241;28;20042;-80
2022/07/09 00:57:09;;;;;;;6.15;3.30;;;;;;;23.51;44.83;100340.91;5022550;28;20099;-81
2022/07/09 00:59:35;;;;;;;8.68;3.25;;;;;;;23.44;45.66;100351.25;5044152;28;20130;-81
2022/07/09 01:02:01;;;;;;;5.50;2.85;;;;;;;23.37;45.75;100335.78;4989920;28;20037;-81
2022/07/09 01:04:27;;;;;;;8.75;3.28;;;;;;;23.35;45.87;100335.22;5022593;28;20037;-78
2022/07/09 01:06:52;;;;;;;5.72;3.17;;;;;;;23.36;45.76;100339.59;5052859;28;20436;-81
2022/07/09 01:09:18;;;;;;;5.35;3.40;;;;;;;23.27;46.46;100340.28;5032159;28;20077;-79
2022/07/09 01:11:43;;;;;;;4.88;3.40;;;;;;;23.35;46.04;100343.44;4973333;28;20034;-79
2022/07/09 01:14:09;;;;;;;3.97;3.10;;;;;;;23.30;45.85;100340.63;5041720;28;20084;-80
2022/07/09 01:16:35;;;;;;;7.40;3.53;;;;;;;23.28;46.86;100336.50;5009027;28;20092;-80
2022/07/09 01:19:03;;;;;;;6.18;3.17;;;;;;;23.33;46.59;100340.13;5014069;28;20425;-80
2022/07/09 01:21:28;;;;;;;6.75;3.10;;;;;;;23.29;46.14;100338.97;5016752;28;20036;-80
2022/07/09 01:23:54;;;;;;;6.03;3.30;;;;;;;23.15;46.10;100326.69;4997062;28;20398;-80
2022/07/09 01:26:19;;;;;;;4.32;3.03;;;;;;;23.19;46.62;100336.09;5003124;28;20029;-79
2022/07/09 01:28:46;;;;;;;4.72;3.40;;;;;;;23.12;46.68;100339.00;4982338;28;20474;-80
2022/07/09 01:31:12;;;;;;;6.68;3.50;;;;;;;22.99;47.07;100322.88;5002280;28;20550;-79
2022/07/09 01:33:38;;;;;;;5.13;3.13;;;;;;;23.05;46.83;100327.38;5045704;28;20035;-81
2022/07/09 01:36:03;;;;;;;9.48;3.50;;;;;;;23.08;46.90;100337.84;5017189;28;20124;-80
2022/07/09 01:38:29;;;;;;;7.00;3.53;;;;;;;23.03;47.12;100343.25;4994754;28;20375;-80
2022/07/09 01:40:54;;;;;;;6.13;3.15;;;;;;;22.99;46.73;100344.00;5034696;28;20036;-78
2022/07/09 01:43:20;;;;;;;7.38;3.42;;;;;;;22.94;47.05;100337.34;4992994;28;20106;-81
2022/07/09 01:45:47;;;;;;;6.22;3.28;;;;;;;22.84;47.07;100334.44;5018557;28;20064;-79
2022/07/09 01:48:13;;;;;;;8.50;3.00;;;;;;;22.86;47.00;100332.28;5023605;28;20037;-80
2022/07/09 01:50:39;;;;;;;7.03;3.38;;;;;;;22.87;46.83;100331.19;4991850;28;20379;-81
2022/07/09 01:53:04;;;;;;;8.10;2.92;;;;;;;22.76;47.03;100323.91;5021352;28;20120;-80
2022/07/09 01:55:30;;;;;;;6.22;3.50;;;;;;;22.76;47.73;100321.16;5035353;28;20103;-80
2022/07/09 01:57:55;;;;;;;7.18;3.22;;;;;;;22.80;47.09;100325.03;5016001;28;20032;-80
2022/07/09 02:00:21;;;;;;;9.75;3.30;;;;;;;22.64;47.12;100314.91;5022930;28;20091;-78
2022/07/09 02:02:47;;;;;;;5.25;3.10;;;;;;;22.62;47.29;100309.72;5013814;28;20129;-78
2022/07/09 02:05:12;;;;;;;4.78;3.20;;;;;;;22.53;47.28;100295.59;5000842;28;20048;-81
2022/07/09 02:07:38;;;;;;;8.32;3.55;;;;;;;22.58;47.28;100319.50;5028859;28;20048;-81
2022/07/09 02:10:04;;;;;;;8.40;3.22;;;;;;;22.55;47.45;100309.88;4986686;28;20037;-78
2022/07/09 02:12:30;;;;;;;5.75;3.25;;;;;;;22.58;47.81;100311.28;5044993;28;20473;-80
2022/07/09 02:14:56;;;;;;;5.60;3.10;;;;;;;22.53;47.93;100311.19;5017957;28;20516;-79
2022/07/09 02:17:21;;;;;;;4.80;3.00;;;;;;;22.54;47.84;100310.94;5024550;28;20041;-79
2022/07/09 02:19:47;;;;;;;10.40;3.13;;;;;;;22.36;48.66;100297.50;5022783;28;20053;-80
2022/07/09 02:22:12;;;;;;;9.27;3.35;;;;;;;22.37;48.50;100304.63;5011086;28;20038;-80
2022/07/09 02:24:38;;;;;;;4.32;3.25;;;;;;;22.22;48.52;100291.50;5010491;28;20034;-79
2022/07/09 02:27:04;;;;;;;6.10;3.38;;;;;;;22.29;48.64;100296.84;4993742;28;20052;-80
2022/07/09 02:29:29;;;;;;;8.57;3.38;;;;;;;22.22;48.97;100323.50;4975394;28;20038;-80
2022/07/09 02:31:55;;;;;;;7.88;3.30;;;;;;;22.23;48.99;100314.22;5009123;28;20033;-79
2022/07/09 02:34:21;;;;;;;8.50;3.50;;;;;;;22.01;49.85;100303.97;4990875;28;20054;-79
2022/07/09 02:36:49;;;;;;;4.20;3.25;;;;;;;22.10;49.64;100316.19;5008374;28;20339;-80
2022/07/09 02:39:14;;;;;;;8.73;3.20;;;;;;;22.03;50.00;100323.72;4991472;28;20044;-80
2022/07/09 02:41:40;;;;;;;6.57;3.42;;;;;;;22.01;50.25;100325.84;5009614;28;20173;-79
2022/07/09 02:44:05;;;;;;;7.25;3.30;;;;;;;21.96;50.53;100331.25;5009331;28;20099;-79
2022/07/09 02:46:31;;;;;;;5.32;3.28;;;;;;;21.92;50.75;100333.63;5006641;28;20042;-80
2022/07/09 02:48:56;;;;;;;5.20;3.30;;;;;;;21.83;50.83;100337.00;4977188;28;20045;-79
2022/07/09 02:51:22;;;;;;;8.80;3.55;;;;;;;21.85;50.97;100330.19;5011112;28;20049;-80
2022/07/09 02:53:47;;;;;;;4.75;3.60;;;;;;;21.85;51.14;100318.44;5010241;28;20056;-79
2022/07/09 02:56:13;;;;;;;6.07;3.20;;;;;;;21.82;50.99;100324.38;5009560;28;20022;-79
2022/07/09 02:58:39;;;;;;;4.80;3.47;;;;;;;21.75;51.11;100329.16;5008795;28;20045;-79
2022/07/09 03:01:06;;;;;;;8.02;3.47;;;;;;;21.66;51.51;100309.56;5010587;28;20032;-80
2022/07/09 03:03:35;;;;;;;5.38;3.35;;;;;;;21.76;51.51;100333.56;5008383;28;20052;-80
2022/07/09 03:06:02;;;;;;;6.63;3.70;;;;;;;21.73;51.43;100314.88;5002540;28;20434;-80
2022/07/09 03:08:28;;;;;;;6.57;3.38;;;;;;;21.80;51.84;100321.06;4991014;28;20034;-80
2022/07/09 03:10:53;;;;;;;8.70;3.60;;;;;;;21.87;51.55;100316.28;5008334;28;20030;-81
2022/07/09 03:13:19;;;;;;;4.90;3.30;;;;;;;21.88;51.57;100331.63;5009017;28;20038;-80
2022/07/09 03:15:46;;;;;;;7.78;3.63;;;;;;;21.85;51.66;100323.91;5016930;28;20042;-79
2022/07/09 03:18:12;;;;;;;7.30;3.90;;;;;;;21.78;51.58;100307.63;5007018;28;20033;-80
2022/07/09 03:20:39;;;;;;;10.52;3.58;;;;;;;21.85;51.52;100329.38;4992822;28;20057;-82
2022/07/09 03:23:05;;;;;;;7.30;3.70;;;;;;;21.88;51.88;100331.63;5024004;28;20041;-79
2022/07/09 03:25:32;;;;;;;9.05;3.75;;;;;;;21.84;51.94;100319.47;5007733;28;20156;-80
2022/07/09 03:27:57;;;;;;;7.60;3.80;;;;;;;21.80;52.08;100321.91;5037475;28;20033;-79
2022/07/09 03:30:23;;;;;;;6.57;3.67;;;;;;;21.86;52.08;100320.06;5007325;28;20044;-82
2022/07/09 03:32:49;;;;;;;5.53;4.13;;;;;;;21.75;52.59;100326.41;4998157;28;21003;-82
2022/07/09 03:35:18;;;;;;;8.68;3.80;;;;;;;21.67;52.78;100316.69;5027473;28;20036;-81
2022/07/09 03:37:45;;;;;;;8.88;3.80;;;;;;;21.64;52.69;100319.91;4978574;28;20050;-81
2022/07/09 03:40:12;;;;;;;7.72;4.10;;;;;;;21.57;52.77;100316.50;5027014;28;20133;-81
2022/07/09 03:42:39;;;;;;;7.53;3.88;;;;;;;21.65;52.74;100329.78;5027152;28;20056;-81
2022/07/09 03:45:07;;;;;;;7.65;3.95;;;;;;;21.66;52.83;100326.81;5026806;28;20557;-82
2022/07/09 03:47:32;;;;;;;8.68;4.20;;;;;;;21.64;53.26;100337.16;5027841;28;20030;-81
2022/07/09 03:49:59;;;;;;;9.35;3.80;;;;;;;21.60;52.66;100337.88;5009467;28;20187;-82
2022/07/09 03:52:29;;;;;;;7.45;4.20;;;;;;;21.52;52.92;100330.91;5013516;28;20048;-80
2022/07/09 03:54:55;;;;;;;6.43;3.88;;;;;;;21.56;53.06;100342.16;5020318;28;20037;-82
2022/07/09 03:57:21;;;;;;;4.97;3.63;;;;;;;21.65;52.37;100335.25;5028469;28;20056;-81
2022/07/09 03:59:49;;;;;;;10.70;3.97;;;;;;;21.43;52.79;100315.94;5017770;28;20065;-81
2022/07/09 04:02:15;;;;;;;10.43;3.97;;;;;;;21.62;52.25;100342.03;5042060;28;20040;-83
2022/07/09 04:04:43;;;;;;;8.65;3.80;;;;;;;21.59;52.38;100341.72;4997839;28;20456;-83
2022/07/09 04:07:12;;;;;;;6.13;3.78;;;;;;;21.57;52.34;100344.66;5012160;28;20033;-80
2022/07/09 04:09:37;;;;;;;7.32;3.90;;;;;;;21.63;52.19;100356.53;5021312;28;20073;-83
2022/07/09 04:12:04;;;;;;;6.90;4.07;;;;;;;21.52;52.44;100347.31;5011363;28;20065;-81
2022/07/09 04:14:37;;;;;;;5.40;3.60;;;;;;;21.57;52.38;100355.63;5023043;28;20520;-82
2022/07/09 04:17:03;;;;;;;5.35;4.05;;;;;;;21.53;52.32;100359.91;5026788;28;20057;-82
2022/07/09 04:19:29;;;;;;;9.90;5.60;;;;;;;21.59;52.09;100353.47;5006849;28;20445;-81
2022/07/09 04:21:57;;;;;;;6.90;3.63;;;;;;;21.66;51.72;100359.63;5029486;28;20565;-81
2022/07/09 04:24:24;;;;;;;8.80;3.88;;;;;;;21.71;52.14;100354.28;5003883;28;20053;-80
2022/07/09 04:26:51;;;;;;;7.50;3.50;;;;;;;21.74;51.80;100343.91;4993802;28;20048;-81
2022/07/09 04:29:17;;;;;;;5.38;3.70;;;;;;;21.84;51.35;100355.06;5009832;28;20049;-81
2022/07/09 04:31:43;;;;;;;6.10;3.60;;;;;;;21.91;51.07;100342.06;5010729;28;20125;-80
2022/07/09 04:34:11;;;;;;;10.88;3.45;;;;;;;21.97;50.73;100352.03;5028663;28;20080;-82
2022/07/09 04:36:38;;;;;;;7.78;3.47;;;;;;;22.05;50.46;100359.84;4993704;28;20068;-80
2022/07/09 04:39:05;;;;;;;7.00;3.40;;;;;;;22.05;50.12;100356.28;5016627;28;20069;-81
2022/07/09 04:41:31;;;;;;;11.77;3.67;;;;;;;21.98;49.78;100337.28;5010852;28;20485;-81
2022/07/09 04:43:58;;;;;;;6.63;3.53;;;;;;;22.11;49.91;100345.19;5016897;28;20176;-80
2022/07/09 04:46:25;;;;;;;11.98;6.90;;;;;;;22.28;49.57;100352.66;5027674;28;20444;-81
2022/07/09 04:48:51;;;;;;;8.30;3.50;;;;;;;22.21;49.91;100358.28;5033409;28;20126;-81
2022/07/09 04:51:18;;;;;;;7.85;3.30;;;;;;;22.25;49.70;100350.41;5011319;28;20508;-81
2022/07/09 04:53:45;;;;;;;6.20;3.60;;;;;;;22.29;49.47;100355.16;5033625;28;20076;-80
2022/07/09 04:56:12;;;;;;;7.05;3.78;;;;;;;22.47;48.86;100354.09;5026554;28;20064;-88
2022/07/09 04:58:51;;;;;;;6.95;3.42;;;;;;;22.53;48.77;100353.09;5020340;28;20473;-82
2022/07/09 05:01:20;;;;;;;8.55;3.70;;;;;;;22.86;48.05;100356.94;5019064;28;20041;-83
2022/07/09 05:03:50;;;;;;;10.32;3.50;;;;;;;23.00;47.85;100340.19;5012900;28;20033;-80
2022/07/09 05:06:19;;;;;;;5.88;3.58;;;;;;;23.10;47.14;100341.16;5029535;28;20034;-83
2022/07/09 05:08:47;;;;;;;7.18;3.40;;;;;;;23.21;47.24;100339.41;5028298;28;20100;-79
2022/07/09 05:11:13;;;;;;;5.82;3.60;;;;;;;23.29;46.44;100322.50;5013913;28;20029;-78
2022/07/09 05:14:06;;;;;;;5.32;3.47;;;;;;;23.68;45.87;100336.19;5023401;28;20039;-81
2022/07/09 05:16:34;;;;;;;6.95;3.22;;;;;;;23.88;45.18;100330.16;5039950;28;20082;-78
2022/07/09 05:19:00;;;;;;;7.80;3.40;;;;;;;24.08;44.48;100329.53;5039322;28;20048;-80
2022/07/09 05:21:26;;;;;;;10.85;3.00;;;;;;;24.48;43.99;100339.28;5037082;28;20045;-82
2022/07/09 05:23:52;;;;;;;5.07;3.30;;;;;;;24.79;43.36;100334.03;4998813;28;20107;-81
2022/07/09 05:26:19;;;;;;;6.90;3.53;;;;;;;24.91;42.66;100336.59;5021669;28;20435;-80
2022/07/09 05:28:44;;;;;;;8.77;3.20;;;;;;;25.08;42.48;100337.28;4980589;28;20041;-81
2022/07/09 05:31:10;;;;;;;12.13;3.33;;;;;;;25.17;42.06;100337.59;4986706;28;20375;-79
2022/07/09 05:33:37;;;;;;;15.48;3.38;;;;;;;25.29;41.85;100341.03;4995797;28;20124;-79
2022/07/09 05:36:04;;;;;;;10.60;2.90;;;;;;;25.43;41.33;100322.13;5039132;28;20067;-81
2022/07/09 05:38:31;;;;;;;4.93;2.90;;;;;;;25.52;40.51;100325.16;5002014;28;20060;-80
2022/07/09 05:40:58;;;;;;;6.03;2.90;;;;;;;25.63;40.58;100332.38;5021072;28;20067;-81
2022/07/09 05:43:23;;;;;;;6.90;2.85;;;;;;;25.68;40.12;100329.63;5033170;28;20103;-80
2022/07/09 05:45:49;;;;;;;11.70;2.75;;;;;;;25.70;39.72;100313.66;5021150;28;20472;-78
2022/07/09 05:48:14;;;;;;;13.07;3.00;;;;;;;25.87;39.77;100297.81;5025056;28;20592;-81
2022/07/09 05:50:40;;;;;;;7.28;3.10;;;;;;;26.22;39.47;100315.50;5002651;28;20413;-81
2022/07/09 05:53:05;;;;;;;8.18;2.70;;;;;;;26.51;38.91;100337.03;5009548;28;20459;-80
2022/07/09 05:55:31;;;;;;;5.47;2.80;;;;;;;26.47;38.24;100313.84;5037881;28;20468;-80
2022/07/09 05:57:57;;;;;;;12.25;3.15;;;;;;;26.43;38.29;100308.06;5008161;28;20511;-81
2022/07/09 06:00:23;;;;;;;6.78;2.90;;;;;;;26.79;38.60;100312.78;5003392;28;20095;-80
2022/07/09 06:02:48;;;;;;;8.18;2.88;;;;;;;26.97;37.27;100301.16;4990581;28;20709;-79
2022/07/09 06:05:14;;;;;;;5.20;2.30;;;;;;;27.24;36.69;100289.81;5020145;28;20053;-79
2022/07/09 06:07:44;;;;;;;4.53;2.50;;;;;;;27.42;36.41;100304.94;5023375;28;20029;-79
2022/07/09 06:10:14;;;;;;;5.95;2.95;;;;;;;27.62;36.22;100295.72;5001506;28;20053;-80
2022/07/09 06:12:41;;;;;;;5.00;2.70;;;;;;;27.71;35.94;100302.31;5006464;28;20029;-82
2022/07/09 06:15:10;;;;;;;6.45;3.10;;;;;;;27.93;35.70;100288.16;5000370;28;20056;-80
2022/07/09 06:17:36;;;;;;;7.97;2.47;;;;;;;27.94;35.30;100313.84;5019316;28;20032;-81
2022/07/09 06:20:05;;;;;;;4.97;2.60;;;;;;;27.81;34.90;100281.28;4996078;28;20373;-80
2022/07/09 06:22:30;;;;;;;10.45;2.15;;;;;;;27.66;34.87;100307.03;5043517;28;20044;-80
2022/07/09 06:24:56;;;;;;;4.18;2.13;;;;;;;27.92;34.88;100305.81;5018977;28;20036;-80
2022/07/09 06:27:21;;;;;;;6.00;2.35;;;;;;;27.97;34.86;100272.63;5041476;28;20033;-81
2022/07/09 06:29:47;;;;;;;5.60;2.30;;;;;;;28.33;34.22;100280.69;4989158;28;20044;-81
2022/07/09 06:32:12;;;;;;;16.77;2.30;;;;;;;28.22;34.07;100281.88;5017330;28;20512;-79
2022/07/09 06:34:38;;;;;;;15.82;2.45;;;;;;;28.41;33.98;100279.22;5002132;28;20042;-81
2022/07/09 06:37:04;;;;;;;7.88;2.40;;;;;;;28.76;33.61;100280.06;5044651;28;20037;-81
2022/07/09 06:39:44;;;;;;;8.18;2.28;;;;;;;28.73;33.11;100284.22;5009321;28;20038;-81
2022/07/09 06:42:10;;;;;;;14.75;2.40;;;;;;;28.91;33.16;100259.69;5020833;28;20068;-82
2022/07/09 06:44:36;;;;;;;7.35;2.50;;;;;;;28.94;33.13;100278.47;5006276;28;20029;-83
2022/07/09 06:47:02;;;;;;;8.80;2.20;;;;;;;29.06;32.90;100273.38;5029175;28;20040;-81
2022/07/09 06:49:33;;;;;;;4.15;2.75;;;;;;;29.16;32.57;100244.78;5019746;28;20045;-83
2022/07/09 06:51:59;;;;;;;9.07;2.60;;;;;;;29.16;32.69;100262.22;5020671;28;20029;-83
2022/07/09 06:54:24;;;;;;;10.68;2.80;;;;;;;29.31;32.03;100263.97;5007597;28;20049;-81
2022/07/09 06:56:50;;;;;;;9.85;4.05;;;;;;;29.41;32.21;100263.84;5037246;28;20037;-80
2022/07/09 06:59:18;;;;;;;10.73;2.70;;;;;;;29.65;31.89;100271.28;5045450;28;20033;-82
2022/07/09 07:01:52;;;;;;;10.63;2.60;;;;;;;29.85;31.22;100264.66;5017852;28;20033;-82
2022/07/09 07:04:19;;;;;;;15.80;4.47;;;;;;;30.17;31.16;100274.16;4981976;28;20029;-82
2022/07/09 07:06:48;;;;;;;10.32;3.10;;;;;;;30.46;30.74;100277.59;5000707;28;20037;-83
2022/07/09 07:09:15;;;;;;;11.27;3.42;;;;;;;30.48;30.58;100253.16;5025516;28;20044;-83
2022/07/09 07:11:40;;;;;;;4.70;2.50;;;;;;;30.42;30.34;100271.00;5016665;28;20072;-81
2022/07/09 07:14:06;;;;;;;4.25;2.10;;;;;;;29.76;31.61;100247.06;4994355;28;20120;-82
2022/07/09 07:16:32;;;;;;;7.22;2.70;;;;;;;29.50;32.12;100269.56;5011790;28;20033;-82
2022/07/09 07:18:57;;;;;;;7.68;2.15;;;;;;;28.87;32.85;100272.47;5031018;28;20056;-82
2022/07/09 07:21:23;;;;;;;7.75;2.05;;;;;;;28.81;32.70;100269.75;4984203;28;20129;-83
2022/07/09 07:23:49;;;;;;;5.03;2.20;;;;;;;28.66;32.82;100283.75;4998086;28;20033;-81
2022/07/09 07:26:14;;;;;;;5.28;2.30;;;;;;;28.44;33.54;100278.63;5025544;28;20030;-82
2022/07/09 07:28:42;;;;;;;8.10;2.10;;;;;;;28.08;33.77;100283.63;5031631;28;20040;-81
2022/07/09 07:31:08;;;;;;;4.95;3.08;;;;;;;27.98;34.28;100281.78;5010250;28;20049;-81
2022/07/09 07:33:33;;;;;;;5.38;2.30;;;;;;;28.02;34.38;100270.94;5023025;28;20382;-80
2022/07/09 07:35:59;;;;;;;9.55;2.40;;;;;;;27.99;34.82;100278.69;5012469;28;20048;-81
2022/07/09 07:38:29;;;;;;;3.72;2.15;;;;;;;28.08;34.33;100292.75;5026206;28;20061;-80
2022/07/09 07:40:54;;;;;;;6.57;2.00;;;;;;;28.16;34.48;100288.53;5032533;28;20033;-81
2022/07/09 07:43:20;;;;;;;3.20;2.13;;;;;;;28.12;34.41;100281.91;5023592;28;20124;-82
2022/07/09 07:45:46;;;;;;;4.70;2.10;;;;;;;28.17;34.30;100276.38;5009438;28;20493;-83
2022/07/09 07:48:20;;;;;;;12.10;2.58;;;;;;;28.07;34.05;100285.53;5024908;28;20509;-81
2022/07/09 07:50:46;;;;;;;10.45;2.25;;;;;;;28.39;33.56;100284.22;4999654;28;20061;-82
2022/07/09 07:53:15;;;;;;;5.15;2.35;;;;;;;28.53;33.81;100289.94;5004891;28;20075;-81
2022/07/09 07:55:40;;;;;;;7.10;2.55;;;;;;;28.44;33.73;100288.88;5032673;28;20029;-82
2022/07/09 07:58:06;;;;;;;8.32;4.00;;;;;;;28.74;33.52;100296.13;5012809;28;20468;-82
2022/07/09 08:00:32;;;;;;;11.30;2.90;;;;;;;28.57;33.73;100283.53;5015103;28;20040;-82
2022/07/09 08:02:58;;;;;;;8.68;5.05;;;;;;;28.73;33.24;100286.16;5021595;28;20045;-82
2022/07/09 08:05:25;;;;;;;8.60;2.83;;;;;;;28.62;34.16;100266.91;5034904;28;20429;-82
2022/07/09 08:07:53;;;;;;;5.30;2.50;;;;;;;28.65;33.69;100284.84;5019850;28;20539;-83
2022/07/09 08:10:19;;;;;;;5.07;2.63;;;;;;;28.53;33.89;100287.19;4983413;28;20052;-81
2022/07/09 08:12:45;;;;;;;8.70;2.78;;;;;;;28.66;34.21;100319.69;4997722;28;20037;-82
2022/07/09 08:15:11;;;;;;;8.35;2.60;;;;;;;29.00;33.52;100307.75;5010661;28;20580;-85
2022/07/09 08:17:37;;;;;;;7.93;2.92;;;;;;;29.11;33.19;100298.25;5002110;28;20049;-83
2022/07/09 08:20:09;;;;;;;5.93;2.75;;;;;;;29.04;32.96;100298.56;5031518;28;20063;-83
2022/07/09 08:22:35;;;;;;;6.45;2.67;;;;;;;29.13;32.62;100286.91;4995234;28;20642;-83
2022/07/09 08:25:01;;;;;;;4.65;2.70;;;;;;;29.32;33.38;100309.09;5020107;28;20028;-82
2022/07/09 08:27:30;;;;;;;3.88;3.15;;;;;;;29.33;32.51;100302.44;5022274;28;20040;-83
2022/07/09 08:29:56;;;;;;;11.20;3.20;;;;;;;29.46;32.63;100310.03;4993883;28;20052;-83
2022/07/09 08:32:21;;;;;;;8.23;2.83;;;;;;;29.59;32.98;100309.28;5030038;28;20434;-88
2022/07/09 08:34:47;;;;;;;5.50;2.60;;;;;;;29.62;32.59;100305.94;5017169;28;20033;-82
2022/07/09 08:37:15;;;;;;;7.65;2.55;;;;;;;29.56;32.22;100315.44;4986449;28;20130;-83
2022/07/09 08:39:41;;;;;;;7.25;2.95;;;;;;;29.86;31.89;100324.50;5040118;28;20029;-83
2022/07/09 08:42:10;;;;;;;6.00;2.80;;;;;;;29.62;32.40;100308.72;5040627;28;20051;-83
2022/07/09 08:44:37;;;;;;;7.65;2.72;;;;;;;29.78;32.35;100314.06;5044315;28;20129;-81
2022/07/09 08:47:03;;;;;;;8.38;2.78;;;;;;;29.80;33.15;100312.66;5027083;28;20036;-83
2022/07/09 08:49:31;;;;;;;11.02;2.90;;;;;;;29.71;32.62;100294.22;4995442;28;20045;-82
2022/07/09 08:51:56;;;;;;;7.75;2.78;;;;;;;29.92;32.83;100308.63;5024660;28;20099;-82
2022/07/09 08:54:22;;;;;;;10.07;2.80;;;;;;;30.05;32.01;100313.44;4996221;28;20452;-84
2022/07/09 08:56:48;;;;;;;6.47;2.78;;;;;;;30.60;30.81;100305.38;4989492;28;20133;-84
2022/07/09 08:59:13;;;;;;;5.82;2.70;;;;;;;30.62;30.83;100302.28;4998560;28;20532;-81
2022/07/09 09:01:39;;;;;;;4.35;2.45;;;;;;;30.65;31.12;100307.25;5016705;28;20041;-83
2022/07/09 09:04:05;;;;;;;6.93;2.95;;;;;;;30.59;31.00;100291.81;5030104;28;20497;-81
2022/07/09 09:06:36;;;;;;;10.82;2.90;;;;;;;30.53;31.20;100304.09;5034735;28;20053;-82
2022/07/09 09:09:02;;;;;;;7.35;2.85;;;;;;;31.22;29.98;100302.31;4983687;28;20022;-83
2022/07/09 09:11:31;;;;;;;6.72;2.65;;;;;;;31.44;29.79;100303.56;4988604;28;20051;-83
2022/07/09 09:13:57;;;;;;;9.68;2.90;;;;;;;31.95;29.10;100289.41;5015149;28;20045;-83
2022/07/09 09:16:23;;;;;;;7.70;2.90;;;;;;;32.97;27.78;100307.50;5000131;28;20119;-82
2022/07/09 09:18:50;;;;;;;9.93;2.67;;;;;;;33.89;26.12;100299.31;5009346;28;20045;-84
2022/07/09 09:21:18;;;;;;;6.10;2.53;;;;;;;34.82;24.98;100297.16;4996267;28;20045;-81
2022/07/09 09:23:48;;;;;;;9.30;2.70;;;;;;;35.78;24.00;100303.13;4994795;28;20025;-82
2022/07/09 09:26:20;;;;;;;5.10;2.70;;;;;;;36.02;23.27;100298.84;5034699;28;20473;-82
2022/07/09 09:28:56;;;;;;;6.85;2.42;;;;;;;36.85;21.93;100306.28;5012160;28;20037;-82
2022/07/09 09:31:35;;;;;;;10.15;2.67;;;;;;;37.34;21.16;100292.34;5016883;28;20052;-84
2022/07/09 09:34:10;;;;;;;7.15;2.42;;;;;;;38.12;20.22;100298.00;5015433;28;20044;-81
2022/07/09 09:36:44;;;;;;;9.48;3.20;;;;;;;38.92;19.57;100291.44;5030559;28;20037;-83
2022/07/09 09:39:20;;;;;;;6.53;2.60;;;;;;;39.26;19.47;100289.06;5028516;28;20418;-82
2022/07/09 09:41:50;;;;;;;10.02;2.60;;;;;;;40.26;18.51;100293.38;5030697;28;20044;-82
2022/07/09 09:44:17;;;;;;;6.53;2.60;;;;;;;40.34;18.12;100289.50;5001644;28;20037;-85
2022/07/09 09:46:43;;;;;;;7.93;2.30;;;;;;;40.77;17.30;100281.91;5039128;28;20033;-83
2022/07/09 09:49:10;;;;;;;7.68;2.70;;;;;;;41.20;17.00;100285.47;5042266;28;20024;-83
2022/07/09 09:51:51;;;;;;;9.88;2.35;;;;;;;41.21;16.74;100289.94;5021233;28;20056;-81
2022/07/09 09:54:20;;;;;;;9.20;2.45;;;;;;;41.67;16.30;100284.16;5032591;28;20033;-82
2022/07/09 09:56:46;;;;;;;8.65;2.58;;;;;;;42.08;15.92;100287.16;5017746;28;20061;-81
2022/07/09 09:59:12;;;;;;;7.78;2.50;;;;;;;42.47;15.54;100286.81;5007181;28;20044;-84
2022/07/09 10:01:41;;;;;;;8.48;2.40;;;;;;;42.67;14.88;100264.03;4982682;28;20545;-82
2022/07/09 10:04:08;;;;;;;7.78;2.72;;;;;;;42.81;15.39;100275.50;5029924;28;20041;-82
2022/07/09 10:06:36;;;;;;;12.13;2.65;;;;;;;43.38;14.78;100273.13;4997828;28;20060;-83
2022/07/09 10:09:25;;;;;;;9.40;2.35;;;;;;;42.98;15.03;100274.00;5005975;28;20125;-84
2022/07/09 10:11:51;;;;;;;9.85;2.50;;;;;;;43.31;14.64;100260.94;5015559;28;20057;-83
2022/07/09 10:14:17;;;;;;;7.38;2.20;;;;;;;43.12;14.61;100259.97;5010454;28;20065;-83
2022/07/09 10:16:43;;;;;;;10.57;2.28;;;;;;;41.96;15.97;100267.66;5013391;28;20037;-84
2022/07/09 10:19:08;;;;;;;8.45;2.22;;;;;;;40.65;16.63;100256.69;5015458;28;20390;-83
2022/07/09 10:21:39;;;;;;;11.98;2.40;;;;;;;40.01;17.53;100261.88;5006636;28;20100;-85
2022/07/09 10:24:05;;;;;;;8.10;2.40;;;;;;;39.38;18.12;100283.34;5020332;28;20045;-84
2022/07/09 10:26:44;;;;;;;7.10;2.40;;;;;;;38.56;19.11;100269.97;5002339;28;20047;-83
2022/07/09 10:29:26;;;;;;;5.82;2.50;;;;;;;38.36;19.06;100274.63;5029113;28;20041;-82
2022/07/09 10:31:55;;;;;;;7.88;3.55;;;;;;;38.61;19.04;100278.13;5013820;28;20033;-84
2022/07/09 10:34:47;;;;;;;10.35;2.90;;;;;;;39.43;17.79;100273.81;5010518;28;20552;-83
2022/07/09 10:37:13;;;;;;;8.77;2.90;;;;;;;38.54;19.61;100264.75;4997674;28;20418;-93
2022/07/09 10:39:38;;;;;;;7.10;2.70;;;;;;;37.79;19.26;100266.16;5008334;28;20061;-84
2022/07/09 10:42:04;;;;;;;4.28;2.30;;;;;;;37.36;20.18;100272.41;5035225;28;20488;-86
2022/07/09 10:44:36;;;;;;;11.77;2.30;;;;;;;37.74;19.49;100260.78;5045249;28;20033;-89
2022/07/09 10:47:04;;;;;;;7.57;2.22;;;;;;;37.64;20.25;100260.47;5023276;28;20033;-84
2022/07/09 10:49:36;;;;;;;8.30;2.53;;;;;;;37.39;20.36;100244.50;5031174;28;20034;-83
2022/07/09 10:52:02;;;;;;;11.57;2.33;;;;;;;37.94;19.56;100249.75;5014261;28;20174;-84
2022/07/09 10:54:27;;;;;;;14.07;2.58;;;;;;;36.78;21.19;100258.44;5034136;28;20445;-83
2022/07/09 10:56:53;;;;;;;10.02;2.40;;;;;;;36.89;20.74;100248.44;5032264;28;20037;-84
2022/07/09 10:59:19;;;;;;;10.20;2.40;;;;;;;35.82;22.21;100253.72;5025398;28;20428;-83
2022/07/09 11:01:45;;;;;;;13.45;3.40;;;;;;;35.51;22.32;100248.50;5030021;28;20453;-83
2022/07/09 11:04:13;;;;;;;9.35;2.85;;;;;;;34.96;23.04;100255.88;5043747;28;20430;-85
2022/07/09 11:06:50;;;;;;;9.80;2.50;;;;;;;35.04;22.64;100252.19;5030476;28;20030;-83
2022/07/09 11:09:16;;;;;;;6.95;2.50;;;;;;;34.91;22.95;100250.47;5027058;28;20041;-85
2022/07/09 11:11:42;;;;;;;6.47;2.40;;;;;;;34.87;22.69;100249.50;5031584;28;20136;-85
2022/07/09 11:14:11;;;;;;;8.77;2.55;;;;;;;34.66;23.38;100258.59;5044325;28;20049;-82
2022/07/09 11:16:37;;;;;;;13.27;2.80;;;;;;;34.43;23.77;100245.97;5015697;28;20121;-83
2022/07/09 11:19:15;;;;;;;8.15;2.63;;;;;;;34.54;23.47;100247.28;5016961;28;20398;-83
2022/07/09 11:21:41;;;;;;;8.23;2.80;;;;;;;34.49;23.51;100247.44;5018764;28;20029;-83
2022/07/09 11:24:32;;;;;;;7.05;2.40;;;;;;;34.36;23.55;100243.69;5028972;28;20029;-83